Fort Bent, Colorado
Current Conditions -  °F | °C
As of 5:53 AM on Thursday 27 Nov 2014 (Local Time) from KLHX Reporting Station
Clear Clear  
Wind Chill: 16°   Ceiling: Unl
Heat Index: 24°   Visibility: 10mi
Dew Point: 19°   Wind: 7mph
Humidity: 81%   Direction: 240°WSW
Pressure: 30.3"   Gusts: NA
Location:  37.8368°N, 103.544°W
Report Text: KLHX 271253Z AUTO 24006KT 10SM CLR M04/M07 A3030 RMK AO2 SLP283 T10441072
Loading
Personal Weather Stations






























Interactive Weather Map New forecast layout! Learn more

10-Day Weather Forecast

Advertisements
Track Severe Weather on mobile